createdAt,value
2018-08-24T00:01:27.099Z,91.30
2018-08-24T00:03:55.261Z,91.30
2018-08-24T00:06:23.495Z,92.00
2018-08-24T00:08:51.642Z,92.30
2018-08-24T00:11:19.788Z,92.30
2018-08-24T00:13:47.954Z,92.50
2018-08-24T00:16:20.491Z,92.40
2018-08-24T00:18:48.659Z,92.50
2018-08-24T00:21:16.763Z,92.80
2018-08-24T00:23:44.985Z,92.90
2018-08-24T00:26:13.099Z,93.00
2018-08-24T00:28:41.194Z,93.20
2018-08-24T00:31:09.395Z,92.80
2018-08-24T00:33:37.507Z,92.80
2018-08-24T00:36:05.615Z,92.90
2018-08-24T00:38:33.652Z,92.90
2018-08-24T00:41:01.799Z,92.60
2018-08-24T00:43:29.938Z,92.70
2018-08-24T00:45:58.224Z,92.60
2018-08-24T00:48:26.397Z,92.40
2018-08-24T00:50:54.543Z,91.30
2018-08-24T00:53:22.624Z,91.40
2018-08-24T00:55:50.660Z,91.50
2018-08-24T00:58:18.805Z,91.20
2018-08-24T01:00:46.940Z,90.60
2018-08-24T01:03:15.105Z,90.80
2018-08-24T01:05:43.206Z,91.70
2018-08-24T01:08:11.400Z,92.00
2018-08-24T01:10:39.521Z,92.20
2018-08-24T01:13:13.693Z,91.70
2018-08-24T01:15:51.182Z,91.20
2018-08-24T01:18:21.072Z,91.60
2018-08-24T01:20:50.956Z,91.80
2018-08-24T01:23:21.245Z,91.80
2018-08-24T01:25:49.396Z,91.60
2018-08-24T01:28:18.480Z,91.30
2018-08-24T01:30:46.596Z,91.10
2018-08-24T01:33:15.123Z,91.10
2018-08-24T01:35:43.282Z,90.70
2018-08-24T01:38:11.681Z,90.20
2018-08-24T01:40:39.821Z,90.50
2018-08-24T01:43:09.001Z,90.80
2018-08-24T01:45:37.258Z,90.90
2018-08-24T01:48:05.673Z,91.10
2018-08-24T01:50:33.957Z,91.30
2018-08-24T01:53:02.102Z,91.60
2018-08-24T01:55:30.292Z,91.60
2018-08-24T01:57:58.400Z,91.70
2018-08-24T02:00:26.446Z,92.10
2018-08-24T02:02:54.641Z,92.20
2018-08-24T02:05:22.716Z,92.50
2018-08-24T02:07:50.787Z,92.20
2018-08-24T02:10:24.525Z,92.20
2018-08-24T02:12:58.218Z,91.90
2018-08-24T02:15:26.384Z,91.70
2018-08-24T02:17:59.967Z,91.70
2018-08-24T02:20:33.531Z,91.50
2018-08-24T02:23:05.329Z,91.70
2018-08-24T02:25:33.568Z,91.50
2018-08-24T02:28:01.658Z,91.70
2018-08-24T02:30:29.822Z,91.60
2018-08-24T02:32:57.982Z,91.50
2018-08-24T02:35:26.189Z,91.20
2018-08-24T02:37:54.271Z,91.10
2018-08-24T02:40:22.835Z,91.30
2018-08-24T02:42:50.964Z,91.40
2018-08-24T02:45:19.153Z,91.40
2018-08-24T02:47:47.439Z,91.50
2018-08-24T02:50:15.567Z,91.70
2018-08-24T02:52:43.615Z,91.60
2018-08-24T02:55:11.763Z,91.70
2018-08-24T02:57:39.921Z,92.10
2018-08-24T03:00:08.093Z,91.70
2018-08-24T03:02:36.220Z,91.80
2018-08-24T03:05:04.430Z,91.80
2018-08-24T03:07:32.602Z,91.90
2018-08-24T03:10:00.839Z,91.90
2018-08-24T03:12:28.989Z,91.70
2018-08-24T03:14:57.100Z,91.70
2018-08-24T03:17:30.814Z,91.80
2018-08-24T03:19:58.967Z,91.60
2018-08-24T03:22:27.135Z,91.60
2018-08-24T03:24:55.273Z,91.60
2018-08-24T03:27:23.444Z,91.60
2018-08-24T03:29:51.626Z,91.50
2018-08-24T03:32:19.822Z,91.40
2018-08-24T03:34:47.953Z,91.40
2018-08-24T03:37:16.108Z,91.30
2018-08-24T03:39:44.274Z,91.20
2018-08-24T03:42:12.356Z,91.10
2018-08-24T03:44:40.571Z,91.20
2018-08-24T03:47:08.699Z,90.90
2018-08-24T03:49:36.810Z,90.90
2018-08-24T03:52:05.001Z,90.80
2018-08-24T03:54:33.095Z,90.80
2018-08-24T03:57:01.208Z,90.90
2018-08-24T03:59:29.390Z,90.80
2018-08-24T04:01:57.556Z,90.90
2018-08-24T04:04:25.906Z,90.50
2018-08-24T04:06:53.964Z,90.60
2018-08-24T04:09:22.125Z,90.70
2018-08-24T04:11:50.211Z,90.60
2018-08-24T04:14:18.347Z,90.60
2018-08-24T04:16:52.098Z,90.50
2018-08-24T04:19:25.697Z,90.60
2018-08-24T04:21:54.136Z,90.60
2018-08-24T04:24:22.580Z,90.80
2018-08-24T04:26:50.964Z,91.40
2018-08-24T04:29:19.048Z,90.70
2018-08-24T04:31:47.228Z,90.90
2018-08-24T04:34:15.441Z,91.20
2018-08-24T04:36:43.575Z,90.60
2018-08-24T04:39:12.780Z,90.70
2018-08-24T04:41:41.993Z,90.50
2018-08-24T04:44:10.634Z,90.60
2018-08-24T04:46:38.784Z,90.50
2018-08-24T04:49:07.353Z,90.60
2018-08-24T04:51:35.520Z,90.90
2018-08-24T04:54:03.632Z,90.70
2018-08-24T04:56:32.061Z,90.80
2018-08-24T04:59:01.043Z,90.90
2018-08-24T05:01:29.207Z,90.80
2018-08-24T05:03:58.236Z,90.80
2018-08-24T05:06:26.404Z,91.20
2018-08-24T05:08:54.559Z,91.10
2018-08-24T05:11:22.816Z,91.00
2018-08-24T05:13:51.005Z,91.00
2018-08-24T05:16:19.189Z,90.60
2018-08-24T05:18:47.360Z,90.40
2018-08-24T05:21:15.573Z,90.00
2018-08-24T05:23:43.683Z,90.50
2018-08-24T05:26:11.743Z,90.30
2018-08-24T05:28:40.048Z,90.20
2018-08-24T05:31:08.191Z,87.60
2018-08-24T05:33:36.254Z,83.10
2018-08-24T05:36:04.376Z,83.50
2018-08-24T05:38:33.341Z,83.60
2018-08-24T05:41:01.542Z,80.30
2018-08-24T05:43:29.667Z,80.00
2018-08-24T05:45:57.774Z,78.40
2018-08-24T05:48:25.964Z,79.40
2018-08-24T05:50:54.122Z,79.00
2018-08-24T05:53:22.305Z,78.40
2018-08-24T05:55:50.499Z,77.40
2018-08-24T05:58:18.611Z,76.70
2018-08-24T06:00:47.028Z,76.90
2018-08-24T06:03:15.217Z,76.50
2018-08-24T06:05:48.948Z,76.60
2018-08-24T06:08:17.073Z,76.40
2018-08-24T06:10:45.231Z,76.80
2018-08-24T06:13:18.683Z,75.90
2018-08-24T06:15:48.410Z,75.70
2018-08-24T06:18:16.581Z,75.70
2018-08-24T06:20:44.699Z,76.10
2018-08-24T06:23:13.104Z,76.60
2018-08-24T06:25:41.262Z,76.60
2018-08-24T06:28:09.407Z,77.50
2018-08-24T06:30:37.591Z,77.70
2018-08-24T06:33:05.828Z,77.70
2018-08-24T06:35:34.005Z,77.50
2018-08-24T06:38:02.091Z,77.30
2018-08-24T06:40:30.274Z,77.80
2018-08-24T06:42:58.409Z,78.00
2018-08-24T06:45:26.534Z,77.70
2018-08-24T06:47:54.581Z,77.40
2018-08-24T06:50:22.839Z,77.40
2018-08-24T06:52:50.969Z,77.60
2018-08-24T06:55:19.029Z,77.20
2018-08-24T06:57:47.108Z,77.50
2018-08-24T07:00:18.728Z,77.30
2018-08-24T07:02:46.833Z,77.80
2018-08-24T07:05:14.993Z,77.00
2018-08-24T07:07:43.091Z,77.20
2018-08-24T07:10:11.192Z,77.70
2018-08-24T07:12:39.364Z,77.20
2018-08-24T07:15:07.468Z,76.90
2018-08-24T07:17:40.936Z,76.20
2018-08-24T07:20:09.062Z,75.80
2018-08-24T07:22:37.166Z,74.50
2018-08-24T07:25:05.541Z,72.70
2018-08-24T07:27:33.602Z,71.20
2018-08-24T07:30:01.714Z,71.20
2018-08-24T07:32:29.915Z,71.10
2018-08-24T07:34:57.986Z,70.50
2018-08-24T07:37:26.113Z,72.60
2018-08-24T07:39:54.260Z,74.80
2018-08-24T07:42:22.354Z,76.10
2018-08-24T07:44:52.974Z,76.10
2018-08-24T07:47:21.531Z,77.30
2018-08-24T07:49:49.854Z,77.80
2018-08-24T07:52:18.020Z,76.90
2018-08-24T07:54:46.088Z,76.40
2018-08-24T07:57:14.270Z,77.20
2018-08-24T07:59:42.488Z,76.70
2018-08-24T08:02:10.683Z,76.00
2018-08-24T08:04:38.819Z,75.30
2018-08-24T08:07:07.074Z,75.30
2018-08-24T08:09:35.302Z,75.00
2018-08-24T08:12:03.474Z,74.00
2018-08-24T08:14:31.878Z,72.40
2018-08-24T08:17:01.470Z,72.30
2018-08-24T08:19:30.560Z,72.60
2018-08-24T08:21:59.748Z,72.50
2018-08-24T08:24:28.004Z,71.50
2018-08-24T08:26:56.176Z,70.60
2018-08-24T08:29:29.780Z,69.20
2018-08-24T08:31:57.968Z,67.30
2018-08-24T08:34:26.063Z,66.30
2018-08-24T08:36:54.200Z,65.50
2018-08-24T08:39:22.312Z,65.40
2018-08-24T08:41:50.422Z,67.10
2018-08-24T08:44:18.509Z,69.10
2018-08-24T08:46:46.637Z,67.20
2018-08-24T08:49:14.729Z,66.00
2018-08-24T08:51:42.908Z,65.10
2018-08-24T08:54:10.991Z,64.30
2018-08-24T08:56:39.208Z,65.50
2018-08-24T08:59:07.972Z,68.40
2018-08-24T09:01:36.119Z,68.20
2018-08-24T09:04:04.316Z,67.70
2018-08-24T09:06:33.485Z,66.70
2018-08-24T09:09:01.597Z,65.70
2018-08-24T09:11:29.795Z,63.60
2018-08-24T09:13:57.916Z,64.00
2018-08-24T09:16:26.102Z,65.30
2018-08-24T09:18:59.827Z,67.80
2018-08-24T09:21:33.518Z,69.40
2018-08-24T09:24:07.377Z,70.30
2018-08-24T09:27:41.657Z,69.00
2018-08-24T09:30:09.800Z,67.70
2018-08-24T09:32:38.036Z,66.00
2018-08-24T09:35:06.166Z,67.50
2018-08-24T09:37:38.400Z,67.90
2018-08-24T09:41:09.681Z,68.10
2018-08-24T09:43:43.456Z,68.50
2018-08-24T09:46:11.858Z,64.20
2018-08-24T09:48:45.548Z,63.40
2018-08-24T09:51:19.140Z,63.00
2018-08-24T09:53:52.769Z,63.10
2018-08-24T09:56:21.055Z,61.00
2018-08-24T09:58:49.244Z,59.70
2018-08-24T10:01:22.645Z,59.60
2018-08-24T10:03:57.340Z,57.70
2018-08-24T10:06:31.137Z,60.00
2018-08-24T10:08:59.236Z,61.10
2018-08-24T10:11:27.353Z,63.90
2018-08-24T10:13:55.451Z,63.70
2018-08-24T10:16:23.531Z,64.50
2018-08-24T10:18:51.613Z,63.50
2018-08-24T10:21:19.825Z,60.50
2018-08-24T10:23:48.028Z,59.80
2018-08-24T10:26:16.063Z,58.60
2018-08-24T10:28:44.216Z,58.30
2018-08-24T10:31:12.348Z,57.90
2018-08-24T10:33:40.581Z,57.70
2018-08-24T10:36:08.742Z,57.60
2018-08-24T10:38:36.934Z,57.70
2018-08-24T10:41:05.291Z,59.00
2018-08-24T10:43:33.577Z,58.90
2018-08-24T10:46:01.784Z,57.70
2018-08-24T10:48:29.992Z,58.10
2018-08-24T10:50:58.103Z,56.40
2018-08-24T10:53:26.452Z,55.00
2018-08-24T10:55:54.741Z,56.00
2018-08-24T10:58:22.872Z,55.90
2018-08-24T11:00:51.294Z,55.00
2018-08-24T11:03:19.598Z,52.50
2018-08-24T11:05:47.909Z,54.60
2018-08-24T11:08:16.153Z,55.70
2018-08-24T11:10:44.338Z,57.00
2018-08-24T11:13:12.491Z,57.00
2018-08-24T11:15:40.700Z,54.70
2018-08-24T11:18:10.260Z,50.40
2018-08-24T11:20:39.902Z,48.70
2018-08-24T11:23:08.385Z,48.20
2018-08-24T11:25:36.414Z,48.90
2018-08-24T11:28:04.533Z,49.90
2018-08-24T11:30:32.734Z,49.80
2018-08-24T11:33:00.835Z,51.20
2018-08-24T11:35:29.325Z,53.80
2018-08-24T11:37:57.491Z,55.40
2018-08-24T11:40:25.564Z,55.90
2018-08-24T11:42:53.781Z,56.30
2018-08-24T11:45:21.981Z,56.60
2018-08-24T11:47:50.085Z,55.20
2018-08-24T11:50:18.216Z,54.70
2018-08-24T11:52:48.707Z,53.50
2018-08-24T11:55:16.926Z,50.50
2018-08-24T11:57:45.340Z,50.30
2018-08-24T12:00:13.633Z,50.10
2018-08-24T12:02:42.220Z,49.90
2018-08-24T12:05:10.380Z,50.50
2018-08-24T12:07:38.707Z,49.50
2018-08-24T12:10:07.240Z,51.20
2018-08-24T12:12:35.649Z,53.10
2018-08-24T12:15:03.907Z,54.30
2018-08-24T12:17:33.757Z,55.20
2018-08-24T12:20:01.926Z,55.60
2018-08-24T12:22:30.188Z,55.40
2018-08-24T12:24:58.341Z,52.00
2018-08-24T12:27:26.542Z,51.70
2018-08-24T12:29:54.902Z,51.10
2018-08-24T12:32:23.088Z,52.10
2018-08-24T12:34:51.551Z,52.70
2018-08-24T12:37:19.711Z,52.80
2018-08-24T12:39:47.820Z,52.80
2018-08-24T12:42:16.008Z,53.00
2018-08-24T12:44:44.199Z,53.40
2018-08-24T12:47:12.834Z,53.50
2018-08-24T12:49:41.450Z,53.70
2018-08-24T12:52:09.707Z,53.00
2018-08-24T12:54:37.843Z,51.60
2018-08-24T12:57:05.984Z,48.20
2018-08-24T12:59:34.301Z,47.00
2018-08-24T13:02:02.809Z,46.00
2018-08-24T13:04:31.051Z,47.20
2018-08-24T13:06:59.223Z,47.80
2018-08-24T13:09:28.148Z,47.90
2018-08-24T13:11:56.333Z,48.10
2018-08-24T13:14:24.497Z,49.10
2018-08-24T13:16:52.706Z,49.60
2018-08-24T13:19:20.892Z,50.70
2018-08-24T13:21:49.866Z,50.60
2018-08-24T13:24:18.076Z,51.50
2018-08-24T13:26:46.172Z,52.50
2018-08-24T13:29:14.374Z,52.50
2018-08-24T13:33:07.065Z,52.60
2018-08-24T13:35:35.300Z,52.90
2018-08-24T13:38:03.483Z,53.80
2018-08-24T13:40:31.612Z,54.20
2018-08-24T13:42:59.744Z,54.20
2018-08-24T13:45:28.295Z,53.90
2018-08-24T13:47:56.591Z,54.40
2018-08-24T13:50:24.968Z,54.20
2018-08-24T13:52:53.181Z,54.60
2018-08-24T13:55:21.260Z,54.40
2018-08-24T13:57:49.439Z,53.70
2018-08-24T14:00:17.658Z,52.40
2018-08-24T14:02:45.929Z,51.60
2018-08-24T14:05:14.145Z,52.30
2018-08-24T14:07:42.337Z,52.40
2018-08-24T14:10:10.464Z,53.80
2018-08-24T14:12:38.963Z,53.30
2018-08-24T14:15:07.247Z,53.20
2018-08-24T14:17:35.454Z,54.40
2018-08-24T14:20:03.548Z,53.50
2018-08-24T14:22:31.686Z,52.90
2018-08-24T14:24:59.790Z,53.10
2018-08-24T14:27:27.878Z,53.10
2018-08-24T14:29:56.067Z,53.30
2018-08-24T14:32:24.236Z,53.50
2018-08-24T14:34:52.371Z,54.20
2018-08-24T14:37:20.538Z,54.90
2018-08-24T14:39:48.668Z,55.20
2018-08-24T14:42:16.775Z,55.80
2018-08-24T14:44:44.945Z,55.90
2018-08-24T14:47:13.182Z,56.80
2018-08-24T14:49:41.441Z,56.60
2018-08-24T14:52:09.728Z,56.60
2018-08-24T14:54:37.920Z,57.00
2018-08-24T14:57:06.186Z,56.80
2018-08-24T14:59:34.395Z,56.60
2018-08-24T15:02:03.033Z,56.70
2018-08-24T15:04:31.869Z,56.70
2018-08-24T15:06:59.990Z,56.60
2018-08-24T15:09:28.213Z,57.00
2018-08-24T15:11:56.384Z,56.70
2018-08-24T15:14:24.611Z,55.90
2018-08-24T15:16:52.835Z,54.50
2018-08-24T15:19:20.969Z,53.80
2018-08-24T15:21:49.120Z,54.00
2018-08-24T15:24:17.167Z,53.10
2018-08-24T15:26:45.400Z,53.90
2018-08-24T15:29:13.629Z,54.00
2018-08-24T15:31:41.789Z,54.10
2018-08-24T15:34:09.980Z,54.40
2018-08-24T15:36:38.192Z,54.60
2018-08-24T15:39:09.916Z,55.00
2018-08-24T15:41:44.056Z,55.40
2018-08-24T15:44:12.382Z,55.80
2018-08-24T15:46:40.502Z,56.60
2018-08-24T15:49:09.301Z,56.70
2018-08-24T15:51:37.986Z,56.80
2018-08-24T15:54:06.213Z,56.80
2018-08-24T15:56:34.961Z,57.80
2018-08-24T15:59:03.026Z,58.00
2018-08-24T16:01:31.249Z,58.30
2018-08-24T16:03:59.459Z,58.60
2018-08-24T16:06:27.944Z,59.20
2018-08-24T16:08:56.048Z,58.90
2018-08-24T16:11:24.287Z,59.00
2018-08-24T16:13:52.468Z,58.50
2018-08-24T16:16:20.716Z,58.90
2018-08-24T16:18:48.874Z,58.60
2018-08-24T16:21:17.418Z,58.50
2018-08-24T16:23:45.569Z,58.60
2018-08-24T16:26:34.232Z,58.90
2018-08-24T16:29:02.296Z,59.20
2018-08-24T16:31:30.449Z,58.80
2018-08-24T16:33:58.612Z,58.10
2018-08-24T16:36:26.673Z,57.50
2018-08-24T16:38:54.919Z,58.30
2018-08-24T16:41:23.032Z,58.60
2018-08-24T16:43:51.238Z,59.40
2018-08-24T16:46:19.413Z,60.60
2018-08-24T16:48:47.569Z,61.50
2018-08-24T16:51:15.696Z,62.60
2018-08-24T16:53:43.923Z,64.00
2018-08-24T16:56:12.045Z,65.00
2018-08-24T16:58:40.252Z,66.70
2018-08-24T17:01:08.517Z,68.40
2018-08-24T17:03:36.726Z,67.80
2018-08-24T17:06:05.054Z,66.30
2018-08-24T17:08:33.243Z,66.80
2018-08-24T17:11:01.480Z,67.10
2018-08-24T17:13:29.624Z,66.90
2018-08-24T17:15:57.820Z,68.10
2018-08-24T17:18:25.938Z,69.40
2018-08-24T17:20:54.216Z,68.70
2018-08-24T17:23:22.394Z,70.20
2018-08-24T17:25:50.539Z,69.80
2018-08-24T17:28:18.795Z,71.60
2018-08-24T17:30:46.963Z,72.40
2018-08-24T17:33:15.040Z,71.70
2018-08-24T17:35:43.231Z,71.60
2018-08-24T17:38:11.369Z,72.60
2018-08-24T17:40:39.803Z,70.90
2018-08-24T17:43:07.981Z,72.50
2018-08-24T17:45:36.130Z,72.10
2018-08-24T17:48:04.227Z,72.70
2018-08-24T17:50:32.523Z,75.00
2018-08-24T17:53:00.632Z,76.50
2018-08-24T17:55:30.799Z,74.60
2018-08-24T17:57:59.033Z,74.60
2018-08-24T18:00:27.253Z,74.50
2018-08-24T18:02:55.429Z,73.10
2018-08-24T18:05:23.658Z,73.80
2018-08-24T18:07:51.757Z,74.30
2018-08-24T18:10:20.270Z,71.40
2018-08-24T18:12:48.459Z,72.00
2018-08-24T18:15:16.792Z,70.10
2018-08-24T18:17:44.799Z,72.10
2018-08-24T18:20:13.213Z,72.90
2018-08-24T18:22:41.401Z,73.60
2018-08-24T18:25:09.534Z,73.00
2018-08-24T18:27:37.987Z,72.30
2018-08-24T18:30:06.171Z,72.30
2018-08-24T18:32:34.355Z,70.90
2018-08-24T18:35:02.661Z,70.50
2018-08-24T18:37:30.902Z,71.10
2018-08-24T18:39:59.101Z,70.90
2018-08-24T18:42:27.346Z,71.30
2018-08-24T18:44:55.555Z,71.30
2018-08-24T18:47:23.660Z,71.70
2018-08-24T18:49:51.810Z,71.50
2018-08-24T18:52:19.963Z,71.90
2018-08-24T18:54:48.373Z,71.60
2018-08-24T18:57:17.596Z,71.70
2018-08-24T18:59:45.971Z,71.50
2018-08-24T19:02:14.180Z,71.70
2018-08-24T19:04:42.471Z,72.10
2018-08-24T19:07:10.524Z,72.30
2018-08-24T19:09:38.741Z,71.70
2018-08-24T19:12:12.445Z,71.20
2018-08-24T19:14:40.648Z,71.80
2018-08-24T19:17:13.144Z,72.20
2018-08-24T19:19:46.873Z,72.30
2018-08-24T19:22:18.698Z,72.40
2018-08-24T19:27:23.477Z,73.30
2018-08-24T19:29:57.312Z,73.20
2018-08-24T19:32:25.447Z,72.70
2018-08-24T19:34:53.697Z,72.50
2018-08-24T19:37:21.933Z,72.80
2018-08-24T19:39:55.669Z,73.10
2018-08-24T19:42:25.297Z,74.00
2018-08-24T19:44:53.929Z,73.80
2018-08-24T19:48:30.536Z,73.90
2018-08-24T19:50:58.669Z,73.90
2018-08-24T19:53:26.892Z,73.70
2018-08-24T19:58:40.403Z,73.70
2018-08-24T20:01:08.866Z,73.50
2018-08-24T20:03:37.200Z,73.60
2018-08-24T20:06:10.710Z,73.40
2018-08-24T20:08:46.062Z,74.00
2018-08-24T20:11:14.352Z,74.00
2018-08-24T20:13:42.818Z,74.00
2018-08-24T20:16:16.514Z,74.40
2018-08-24T20:18:49.228Z,74.80
2018-08-24T20:21:17.714Z,75.10
2018-08-24T20:23:45.953Z,75.50
2018-08-24T20:26:14.966Z,75.90
2018-08-24T20:28:43.448Z,76.10
2018-08-24T20:31:15.166Z,76.10
2018-08-24T20:33:43.568Z,76.00
2018-08-24T20:36:12.167Z,76.20
2018-08-24T20:38:40.563Z,76.50
2018-08-24T20:41:08.748Z,77.00
2018-08-24T20:43:37.242Z,76.80
2018-08-24T20:46:05.516Z,77.00
2018-08-24T20:48:33.637Z,77.30
2018-08-24T20:51:01.782Z,76.20
2018-08-24T20:53:30.115Z,77.10
2018-08-24T20:55:58.331Z,77.50
2018-08-24T20:58:26.462Z,77.00
2018-08-24T21:00:54.674Z,77.00
2018-08-24T21:03:22.915Z,77.50
2018-08-24T21:05:51.277Z,77.80
2018-08-24T21:08:19.464Z,78.30
2018-08-24T21:10:47.796Z,78.30
2018-08-24T21:13:16.222Z,78.20
2018-08-24T21:15:44.644Z,78.30
2018-08-24T21:18:12.808Z,78.30
2018-08-24T21:20:45.659Z,78.60
2018-08-24T21:23:14.867Z,79.10
2018-08-24T21:25:44.059Z,79.40
2018-08-24T21:28:13.165Z,79.60
2018-08-24T21:30:41.548Z,79.30
2018-08-24T21:33:09.908Z,79.80
2018-08-24T21:35:39.149Z,79.90
2018-08-24T21:38:07.281Z,80.10
2018-08-24T21:40:35.440Z,80.10
2018-08-24T21:43:04.466Z,79.60
2018-08-24T21:45:32.745Z,79.70
2018-08-24T21:48:00.896Z,79.90
2018-08-24T21:50:28.995Z,79.60
2018-08-24T21:52:57.127Z,79.50
2018-08-24T21:55:25.315Z,79.10
2018-08-24T21:57:53.986Z,79.80
2018-08-24T22:00:23.749Z,79.80
2018-08-24T22:02:51.924Z,79.60
2018-08-24T22:05:20.091Z,79.60
2018-08-24T22:07:48.265Z,79.20
2018-08-24T22:10:16.407Z,79.50
2018-08-24T22:12:44.521Z,80.40
2018-08-24T22:15:12.673Z,79.70
2018-08-24T22:17:40.859Z,80.90
2018-08-24T22:20:09.157Z,81.40
2018-08-24T22:22:37.263Z,81.00
2018-08-24T22:25:05.360Z,81.40
2018-08-24T22:27:33.549Z,80.60
2018-08-24T22:30:01.727Z,80.30
2018-08-24T22:32:29.912Z,80.70
2018-08-24T22:34:58.072Z,80.70
2018-08-24T22:37:26.293Z,81.60
2018-08-24T22:39:54.413Z,81.20
2018-08-24T22:42:22.590Z,81.00
2018-08-24T22:44:50.752Z,80.90
2018-08-24T22:47:18.873Z,80.50
2018-08-24T22:49:46.970Z,80.20
2018-08-24T22:52:15.076Z,79.90
2018-08-24T22:54:43.269Z,80.10
2018-08-24T22:57:11.456Z,80.10
2018-08-24T22:59:39.602Z,80.70
2018-08-24T23:02:07.775Z,80.90
2018-08-24T23:04:36.005Z,81.00
2018-08-24T23:07:04.151Z,81.70
2018-08-24T23:09:32.320Z,81.30
2018-08-24T23:12:00.501Z,81.50
2018-08-24T23:14:28.694Z,81.50
2018-08-24T23:16:56.830Z,81.50
2018-08-24T23:19:24.969Z,81.40
2018-08-24T23:21:53.589Z,81.80
2018-08-24T23:24:21.841Z,81.80
2018-08-24T23:26:50.009Z,82.40
2018-08-24T23:29:18.097Z,82.70
2018-08-24T23:31:46.237Z,82.70
2018-08-24T23:34:14.637Z,83.10
2018-08-24T23:36:42.580Z,84.10
2018-08-24T23:39:11.740Z,83.90
2018-08-24T23:41:39.933Z,83.90
2018-08-24T23:44:08.240Z,84.20
2018-08-24T23:46:36.393Z,84.30
2018-08-24T23:49:04.645Z,85.00
2018-08-24T23:51:32.861Z,84.50
2018-08-24T23:54:01.044Z,84.80
2018-08-24T23:56:29.205Z,85.00
2018-08-24T23:58:57.420Z,85.40
